• Join FlightAware (Why Join?)
  • Login
  • US Flag 
05:48AM EDT


 

Airport Tracker/Info


-or-


 

Live Flight TrackerFlight Track Log ✈ N1944E ✈ 15-Jan-2014 ✈ KCOD - KJAC

Flight Track Log - Related Links

Times and Time Zones

All times are in EST time to prevent confusion due to time zone crossing. See the N1944E flight status page for this flight to view local times or setup timezone preferences in your user account.

Time Position Orientation Groundspeed Altitude Reporting Facility
EST Latitude Longitude Course Direction KTS MPH feet Rate Location/Type
09:34AM 44.4550 -109.1369 237° Southwest 115 132 8,900  Level Salt Lake Center
09:35AM 44.4381 -109.1733 237° Southwest 114 131 9,900 1,080 Climbing Salt Lake Center
09:36AM 44.4192 -109.2139 237° Southwest 119 137 11,200 1,260 Climbing Salt Lake Center
09:37AM 44.3972 -109.2578 235° Southwest 129 148 12,500 1,200 Climbing Salt Lake Center
09:38AM 44.3708 -109.3044 232° Southwest 144 166 13,700 1,080 Climbing Salt Lake Center
09:39AM 44.3456 -109.3589 237° Southwest 161 185 14,700 840 Climbing Salt Lake Center
09:40AM 44.3153 -109.4167 234° Southwest 157 181 15,500 660 Climbing Salt Lake Center
09:41AM 44.2931 -109.4619 236° Southwest 147 169 16,100 240 Climbing Salt Lake Center
09:42AM 44.2703 -109.5139 239° Southwest 156 180 16,100 -60 Level Salt Lake Center
09:43AM 44.2394 -109.5786 236° Southwest 191 220 16,000 -60 Descending Salt Lake Center
09:44AM 44.1989 -109.6492 231° Southwest 204 235 16,000  Level Salt Lake Center
09:45AM 44.1692 -109.7047 233° Southwest 194 223 16,000  Level Salt Lake Center
09:46AM 44.1408 -109.7536 231° Southwest 179 206 16,000  Level Salt Lake Center
09:47AM 44.1103 -109.8131 234° Southwest 171 197 16,000 -120 Level Salt Lake Center
09:48AM 44.0833 -109.8686 236° Southwest 177 204 15,800 -120 Descending Salt Lake Center
09:49AM 44.0492 -109.9319 233° Southwest 182 209 15,800  Level Salt Lake Center
09:50AM 44.0186 -109.9886 233° Southwest 187 215 15,800  Level Salt Lake Center
09:51AM 43.9903 -110.0433 234° Southwest 185 213 15,800 -480 Level Salt Lake Center
09:52AM 43.9572 -110.1097 235° Southwest 186 214 14,900 -960 Descending Salt Lake Center
09:53AM 43.9239 -110.1719 233° Southwest 200 230 13,900 -420 Descending Salt Lake Center
09:54AM 43.8867 -110.2317 229° Southwest 209 241 14,100 60 Climbing Salt Lake Center
09:55AM 43.8514 -110.2931 231° Southwest 198 228 14,100 -180 Level Salt Lake Center
09:56AM 43.8256 -110.3456 236° Southwest 186 214 13,800 -660 Descending Salt Lake Center
09:57AM 43.7936 -110.4072 234° Southwest 180 207 12,800 -840 Descending Salt Lake Center
09:58AM 43.7614 -110.4678 234° Southwest 188 216 12,100 -720 Descending Salt Lake Center
09:59AM 43.7322 -110.5225 234° Southwest 193 222 11,400 -1,080 Descending Salt Lake Center
10:01AM 43.6803 -110.6022 228° Southwest 166 191 9,600 -1,140 Descending Salt Lake Center
10:02AM 43.6361 -110.6358 209° Southwest 178 205 8,700 -600 Descending Salt Lake Center
10:03AM 43.5958 -110.6706 212° Southwest 171 197 8,400 -600 Descending Salt Lake Center
10:04AM 43.5694 -110.7017 221° Southwest 142 163 7,600 -720 Descending Salt Lake Center
10:05AM 43.5728 -110.7483 276° West 130 150 7,000 -480 Descending Salt Lake Center
10:06AM 43.5986 -110.7428 North 121 139 6,700 -300 Descending Salt Lake Center